sensor_id;sensor_type;location;lat;lon;timestamp;pressure;altitude;pressure_sealevel;temperature
63689;BMP280;54895;40.928;14.480;2024-01-30T00:00:22;103269.63;;;18.63
63689;BMP280;54895;40.928;14.480;2024-01-30T00:02:48;103270.53;;;18.47
63689;BMP280;54895;40.928;14.480;2024-01-30T00:05:15;103272.78;;;18.43
63689;BMP280;54895;40.928;14.480;2024-01-30T00:07:41;103271.31;;;18.42
63689;BMP280;54895;40.928;14.480;2024-01-30T00:10:07;103276.72;;;18.18
63689;BMP280;54895;40.928;14.480;2024-01-30T00:12:34;103278.50;;;18.04
63689;BMP280;54895;40.928;14.480;2024-01-30T00:15:00;103273.72;;;17.92
63689;BMP280;54895;40.928;14.480;2024-01-30T00:17:27;103265.25;;;17.77
63689;BMP280;54895;40.928;14.480;2024-01-30T00:19:53;103267.06;;;17.63
63689;BMP280;54895;40.928;14.480;2024-01-30T00:22:19;103265.44;;;17.84
63689;BMP280;54895;40.928;14.480;2024-01-30T00:24:45;103262.88;;;17.22
63689;BMP280;54895;40.928;14.480;2024-01-30T00:27:12;103265.03;;;17.29
63689;BMP280;54895;40.928;14.480;2024-01-30T00:29:38;103276.91;;;17.55
63689;BMP280;54895;40.928;14.480;2024-01-30T00:35:57;103281.50;;;17.66
63689;BMP280;54895;40.928;14.480;2024-01-30T00:38:25;103282.78;;;17.54
63689;BMP280;54895;40.928;14.480;2024-01-30T00:40:52;103270.94;;;17.68
63689;BMP280;54895;40.928;14.480;2024-01-30T00:43:19;103271.28;;;17.88
63689;BMP280;54895;40.928;14.480;2024-01-30T00:45:47;103270.41;;;17.75
63689;BMP280;54895;40.928;14.480;2024-01-30T00:48:14;103276.97;;;16.71
63689;BMP280;54895;40.928;14.480;2024-01-30T00:50:40;103270.41;;;16.61
63689;BMP280;54895;40.928;14.480;2024-01-30T00:53:07;103268.06;;;17.09
63689;BMP280;54895;40.928;14.480;2024-01-30T00:55:34;103268.84;;;17.50
63689;BMP280;54895;40.928;14.480;2024-01-30T00:58:01;103273.31;;;17.42
63689;BMP280;54895;40.928;14.480;2024-01-30T01:00:30;103272.81;;;17.78
63689;BMP280;54895;40.928;14.480;2024-01-30T01:02:59;103266.97;;;17.74
63689;BMP280;54895;40.928;14.480;2024-01-30T01:05:25;103266.00;;;17.72
63689;BMP280;54895;40.928;14.480;2024-01-30T01:07:53;103269.13;;;17.87
63689;BMP280;54895;40.928;14.480;2024-01-30T01:10:20;103267.22;;;18.06
63689;BMP280;54895;40.928;14.480;2024-01-30T01:12:48;103277.47;;;18.13
63689;BMP280;54895;40.928;14.480;2024-01-30T01:15:14;103266.28;;;17.74
63689;BMP280;54895;40.928;14.480;2024-01-30T01:17:41;103268.84;;;17.55
63689;BMP280;54895;40.928;14.480;2024-01-30T01:20:08;103265.00;;;17.80
63689;BMP280;54895;40.928;14.480;2024-01-30T01:22:37;103261.56;;;17.80
63689;BMP280;54895;40.928;14.480;2024-01-30T01:25:05;103261.78;;;17.82
63689;BMP280;54895;40.928;14.480;2024-01-30T01:27:34;103258.88;;;17.80
63689;BMP280;54895;40.928;14.480;2024-01-30T01:30:09;103263.63;;;17.63
63689;BMP280;54895;40.928;14.480;2024-01-30T01:36:25;103269.44;;;17.32
63689;BMP280;54895;40.928;14.480;2024-01-30T01:38:52;103255.91;;;17.48
63689;BMP280;54895;40.928;14.480;2024-01-30T01:41:18;103255.38;;;17.55
63689;BMP280;54895;40.928;14.480;2024-01-30T01:43:45;103244.38;;;17.48
63689;BMP280;54895;40.928;14.480;2024-01-30T01:46:12;103241.88;;;17.61
63689;BMP280;54895;40.928;14.480;2024-01-30T01:48:38;103248.91;;;17.69
63689;BMP280;54895;40.928;14.480;2024-01-30T01:51:06;103245.78;;;17.60
63689;BMP280;54895;40.928;14.480;2024-01-30T01:53:33;103245.84;;;17.49
63689;BMP280;54895;40.928;14.480;2024-01-30T01:56:00;103244.50;;;17.26
63689;BMP280;54895;40.928;14.480;2024-01-30T01:58:27;103242.25;;;17.41
63689;BMP280;54895;40.928;14.480;2024-01-30T02:00:58;103239.06;;;17.42
63689;BMP280;54895;40.928;14.480;2024-01-30T02:03:25;103233.19;;;17.38
63689;BMP280;54895;40.928;14.480;2024-01-30T02:05:52;103237.84;;;17.38
63689;BMP280;54895;40.928;14.480;2024-01-30T02:08:18;103234.00;;;16.60
63689;BMP280;54895;40.928;14.480;2024-01-30T02:10:44;103234.09;;;17.00
63689;BMP280;54895;40.928;14.480;2024-01-30T02:13:11;103228.28;;;16.91
63689;BMP280;54895;40.928;14.480;2024-01-30T02:15:38;103229.94;;;17.05
63689;BMP280;54895;40.928;14.480;2024-01-30T02:18:04;103225.13;;;16.87
63689;BMP280;54895;40.928;14.480;2024-01-30T02:20:34;103232.88;;;16.96
63689;BMP280;54895;40.928;14.480;2024-01-30T02:23:02;103229.84;;;17.27
63689;BMP280;54895;40.928;14.480;2024-01-30T02:25:39;103236.19;;;17.24
63689;BMP280;54895;40.928;14.480;2024-01-30T02:28:11;103229.22;;;17.45
63689;BMP280;54895;40.928;14.480;2024-01-30T02:30:45;103226.38;;;17.32
63689;BMP280;54895;40.928;14.480;2024-01-30T02:36:28;103224.22;;;17.60
63689;BMP280;54895;40.928;14.480;2024-01-30T02:38:54;103221.50;;;17.71
63689;BMP280;54895;40.928;14.480;2024-01-30T02:41:21;103224.78;;;17.88
63689;BMP280;54895;40.928;14.480;2024-01-30T02:43:47;103223.16;;;15.39
63689;BMP280;54895;40.928;14.480;2024-01-30T02:46:14;103221.31;;;15.78
63689;BMP280;54895;40.928;14.480;2024-01-30T02:48:40;103226.91;;;15.58
63689;BMP280;54895;40.928;14.480;2024-01-30T02:51:06;103215.97;;;16.00
63689;BMP280;54895;40.928;14.480;2024-01-30T02:53:33;103213.28;;;16.22
63689;BMP280;54895;40.928;14.480;2024-01-30T02:55:59;103212.03;;;16.23
63689;BMP280;54895;40.928;14.480;2024-01-30T02:58:25;103213.50;;;16.35
63689;BMP280;54895;40.928;14.480;2024-01-30T03:00:52;103207.38;;;16.40
63689;BMP280;54895;40.928;14.480;2024-01-30T03:03:18;103213.03;;;16.31
63689;BMP280;54895;40.928;14.480;2024-01-30T03:05:44;103205.16;;;16.44
63689;BMP280;54895;40.928;14.480;2024-01-30T03:08:11;103214.41;;;16.65
63689;BMP280;54895;40.928;14.480;2024-01-30T03:10:37;103214.88;;;16.80
63689;BMP280;54895;40.928;14.480;2024-01-30T03:13:03;103206.44;;;16.27
63689;BMP280;54895;40.928;14.480;2024-01-30T03:15:30;103204.19;;;16.58
63689;BMP280;54895;40.928;14.480;2024-01-30T03:17:56;103207.09;;;16.49
63689;BMP280;54895;40.928;14.480;2024-01-30T03:20:22;103211.72;;;16.65
63689;BMP280;54895;40.928;14.480;2024-01-30T03:22:49;103208.59;;;16.50
63689;BMP280;54895;40.928;14.480;2024-01-30T03:25:15;103202.25;;;16.42
63689;BMP280;54895;40.928;14.480;2024-01-30T03:27:41;103195.41;;;16.41
63689;BMP280;54895;40.928;14.480;2024-01-30T03:30:09;103206.91;;;15.70
63689;BMP280;54895;40.928;14.480;2024-01-30T03:36:19;103202.25;;;15.76
63689;BMP280;54895;40.928;14.480;2024-01-30T03:38:46;103194.91;;;15.60
63689;BMP280;54895;40.928;14.480;2024-01-30T03:41:13;103189.56;;;15.82
63689;BMP280;54895;40.928;14.480;2024-01-30T03:43:40;103200.84;;;15.97
63689;BMP280;54895;40.928;14.480;2024-01-30T03:46:06;103204.97;;;16.04
63689;BMP280;54895;40.928;14.480;2024-01-30T03:48:33;103195.88;;;16.45
63689;BMP280;54895;40.928;14.480;2024-01-30T03:51:00;103202.22;;;16.53
63689;BMP280;54895;40.928;14.480;2024-01-30T03:53:26;103201.75;;;15.72
63689;BMP280;54895;40.928;14.480;2024-01-30T03:55:53;103200.34;;;15.93
63689;BMP280;54895;40.928;14.480;2024-01-30T03:58:19;103196.44;;;16.22
63689;BMP280;54895;40.928;14.480;2024-01-30T04:00:45;103197.41;;;15.97
63689;BMP280;54895;40.928;14.480;2024-01-30T04:03:12;103200.34;;;16.04
63689;BMP280;54895;40.928;14.480;2024-01-30T04:05:38;103192.25;;;15.71
63689;BMP280;54895;40.928;14.480;2024-01-30T04:08:04;103188.38;;;16.05
63689;BMP280;54895;40.928;14.480;2024-01-30T04:10:31;103191.53;;;16.20
63689;BMP280;54895;40.928;14.480;2024-01-30T04:12:57;103196.41;;;16.16
63689;BMP280;54895;40.928;14.480;2024-01-30T04:15:23;103195.22;;;16.12
63689;BMP280;54895;40.928;14.480;2024-01-30T04:17:49;103193.94;;;16.29
63689;BMP280;54895;40.928;14.480;2024-01-30T04:20:16;103195.88;;;16.45
63689;BMP280;54895;40.928;14.480;2024-01-30T04:22:46;103203.72;;;16.32
63689;BMP280;54895;40.928;14.480;2024-01-30T04:25:13;103202.28;;;16.31
63689;BMP280;54895;40.928;14.480;2024-01-30T04:27:39;103202.00;;;16.51
63689;BMP280;54895;40.928;14.480;2024-01-30T04:30:06;103202.97;;;16.53
63689;BMP280;54895;40.928;14.480;2024-01-30T04:36:21;103195.66;;;16.43
63689;BMP280;54895;40.928;14.480;2024-01-30T04:38:47;103205.69;;;16.37
63689;BMP280;54895;40.928;14.480;2024-01-30T04:41:14;103202.53;;;16.11
63689;BMP280;54895;40.928;14.480;2024-01-30T04:43:41;103201.06;;;16.21
63689;BMP280;54895;40.928;14.480;2024-01-30T04:46:07;103200.81;;;15.86
63689;BMP280;54895;40.928;14.480;2024-01-30T04:48:34;103202.28;;;15.87
63689;BMP280;54895;40.928;14.480;2024-01-30T04:51:01;103205.19;;;15.67
63689;BMP280;54895;40.928;14.480;2024-01-30T04:53:30;103199.06;;;15.50
63689;BMP280;54895;40.928;14.480;2024-01-30T04:55:57;103209.09;;;15.77
63689;BMP280;54895;40.928;14.480;2024-01-30T04:58:23;103206.66;;;15.85
63689;BMP280;54895;40.928;14.480;2024-01-30T05:00:50;103210.34;;;15.93
63689;BMP280;54895;40.928;14.480;2024-01-30T05:03:19;103203.53;;;15.92
63689;BMP280;54895;40.928;14.480;2024-01-30T05:05:45;103208.16;;;16.02
63689;BMP280;54895;40.928;14.480;2024-01-30T05:08:12;103212.75;;;16.29
63689;BMP280;54895;40.928;14.480;2024-01-30T05:10:38;103216.44;;;16.15
63689;BMP280;54895;40.928;14.480;2024-01-30T05:13:05;103215.47;;;15.96
63689;BMP280;54895;40.928;14.480;2024-01-30T05:15:31;103212.56;;;16.27
63689;BMP280;54895;40.928;14.480;2024-01-30T05:17:58;103225.72;;;16.03
63689;BMP280;54895;40.928;14.480;2024-01-30T05:20:24;103234.78;;;16.22
63689;BMP280;54895;40.928;14.480;2024-01-30T05:22:54;103226.44;;;15.82
63689;BMP280;54895;40.928;14.480;2024-01-30T05:25:20;103225.72;;;15.81
63689;BMP280;54895;40.928;14.480;2024-01-30T05:27:47;103228.19;;;16.01
63689;BMP280;54895;40.928;14.480;2024-01-30T05:30:13;103227.19;;;16.04
63689;BMP280;54895;40.928;14.480;2024-01-30T05:36:16;103224.97;;;15.64
63689;BMP280;54895;40.928;14.480;2024-01-30T05:38:43;103232.31;;;15.86
63689;BMP280;54895;40.928;14.480;2024-01-30T05:41:09;103228.16;;;15.85
63689;BMP280;54895;40.928;14.480;2024-01-30T05:43:36;103227.34;;;15.46
63689;BMP280;54895;40.928;14.480;2024-01-30T05:46:02;103236.06;;;15.35
63689;BMP280;54895;40.928;14.480;2024-01-30T05:48:28;103233.63;;;14.42
63689;BMP280;54895;40.928;14.480;2024-01-30T05:50:58;103240.97;;;15.37
63689;BMP280;54895;40.928;14.480;2024-01-30T05:53:25;103238.78;;;15.46
63689;BMP280;54895;40.928;14.480;2024-01-30T05:55:52;103245.84;;;15.33
63689;BMP280;54895;40.928;14.480;2024-01-30T05:58:18;103250.09;;;14.66
63689;BMP280;54895;40.928;14.480;2024-01-30T06:00:44;103243.72;;;14.95
63689;BMP280;54895;40.928;14.480;2024-01-30T06:03:11;103247.72;;;15.16
63689;BMP280;54895;40.928;14.480;2024-01-30T06:05:38;103252.56;;;15.06
63689;BMP280;54895;40.928;14.480;2024-01-30T06:08:05;103258.09;;;14.92
63689;BMP280;54895;40.928;14.480;2024-01-30T06:10:31;103260.00;;;14.91
63689;BMP280;54895;40.928;14.480;2024-01-30T06:12:58;103266.66;;;15.01
63689;BMP280;54895;40.928;14.480;2024-01-30T06:15:24;103261.13;;;15.10
63689;BMP280;54895;40.928;14.480;2024-01-30T06:17:50;103268.72;;;15.23
63689;BMP280;54895;40.928;14.480;2024-01-30T06:20:17;103273.38;;;14.80
63689;BMP280;54895;40.928;14.480;2024-01-30T06:22:44;103280.75;;;15.49
63689;BMP280;54895;40.928;14.480;2024-01-30T06:25:10;103283.41;;;15.33
63689;BMP280;54895;40.928;14.480;2024-01-30T06:27:38;103269.16;;;15.74
63689;BMP280;54895;40.928;14.480;2024-01-30T06:30:05;103279.94;;;15.96
63689;BMP280;54895;40.928;14.480;2024-01-30T06:32:31;103288.91;;;15.77
63689;BMP280;54895;40.928;14.480;2024-01-30T06:35:01;103291.59;;;15.71
63689;BMP280;54895;40.928;14.480;2024-01-30T06:37:29;103296.22;;;15.76
63689;BMP280;54895;40.928;14.480;2024-01-30T06:39:55;103298.00;;;15.90
63689;BMP280;54895;40.928;14.480;2024-01-30T06:42:21;103294.59;;;16.06
63689;BMP280;54895;40.928;14.480;2024-01-30T06:44:50;103296.56;;;16.33
63689;BMP280;54895;40.928;14.480;2024-01-30T06:47:16;103293.13;;;16.49
63689;BMP280;54895;40.928;14.480;2024-01-30T06:49:42;103297.78;;;16.43
63689;BMP280;54895;40.928;14.480;2024-01-30T06:52:10;103293.59;;;16.64
63689;BMP280;54895;40.928;14.480;2024-01-30T06:54:36;103289.38;;;17.01
63689;BMP280;54895;40.928;14.480;2024-01-30T06:57:02;103300.59;;;17.11
63689;BMP280;54895;40.928;14.480;2024-01-30T06:59:29;103304.28;;;17.08
63689;BMP280;54895;40.928;14.480;2024-01-30T07:01:55;103304.31;;;16.86
63689;BMP280;54895;40.928;14.480;2024-01-30T07:04:21;103313.66;;;16.63
63689;BMP280;54895;40.928;14.480;2024-01-30T07:06:48;103301.63;;;16.91
63689;BMP280;54895;40.928;14.480;2024-01-30T07:09:14;103306.81;;;16.18
63689;BMP280;54895;40.928;14.480;2024-01-30T07:11:41;103311.69;;;16.14
63689;BMP280;54895;40.928;14.480;2024-01-30T07:14:08;103314.38;;;16.80
63689;BMP280;54895;40.928;14.480;2024-01-30T07:16:35;103313.16;;;16.10
63689;BMP280;54895;40.928;14.480;2024-01-30T07:19:01;103319.53;;;16.34
63689;BMP280;54895;40.928;14.480;2024-01-30T07:21:28;103317.06;;;16.25
63689;BMP280;54895;40.928;14.480;2024-01-30T07:23:54;103317.88;;;15.56
63689;BMP280;54895;40.928;14.480;2024-01-30T07:26:21;103324.91;;;16.56
63689;BMP280;54895;40.928;14.480;2024-01-30T07:28:48;103316.81;;;16.83
63689;BMP280;54895;40.928;14.480;2024-01-30T07:31:14;103320.47;;;16.86
63689;BMP280;54895;40.928;14.480;2024-01-30T07:37:01;103318.53;;;16.59
63689;BMP280;54895;40.928;14.480;2024-01-30T07:39:28;103322.06;;;17.27
63689;BMP280;54895;40.928;14.480;2024-01-30T07:41:54;103323.63;;;17.58
63689;BMP280;54895;40.928;14.480;2024-01-30T07:44:20;103333.47;;;17.90
63689;BMP280;54895;40.928;14.480;2024-01-30T07:46:47;103324.88;;;18.27
63689;BMP280;54895;40.928;14.480;2024-01-30T07:49:13;103329.34;;;18.54
63689;BMP280;54895;40.928;14.480;2024-01-30T07:51:40;103337.72;;;18.92
63689;BMP280;54895;40.928;14.480;2024-01-30T07:54:06;103328.00;;;19.26
63689;BMP280;54895;40.928;14.480;2024-01-30T07:56:33;103331.19;;;19.43
63689;BMP280;54895;40.928;14.480;2024-01-30T07:59:00;103329.44;;;19.64
63689;BMP280;54895;40.928;14.480;2024-01-30T08:01:26;103326.28;;;19.79
63689;BMP280;54895;40.928;14.480;2024-01-30T08:03:53;103325.91;;;19.69
63689;BMP280;54895;40.928;14.480;2024-01-30T08:06:20;103326.81;;;19.77
63689;BMP280;54895;40.928;14.480;2024-01-30T08:08:46;103334.78;;;20.01
63689;BMP280;54895;40.928;14.480;2024-01-30T08:11:12;103337.06;;;20.10
63689;BMP280;54895;40.928;14.480;2024-01-30T08:13:38;103333.56;;;20.15
63689;BMP280;54895;40.928;14.480;2024-01-30T08:16:05;103342.03;;;20.38
63689;BMP280;54895;40.928;14.480;2024-01-30T08:18:31;103333.50;;;20.60
63689;BMP280;54895;40.928;14.480;2024-01-30T08:20:57;103331.50;;;20.73
63689;BMP280;54895;40.928;14.480;2024-01-30T08:23:24;103337.56;;;20.66
63689;BMP280;54895;40.928;14.480;2024-01-30T08:25:50;103338.06;;;20.64
63689;BMP280;54895;40.928;14.480;2024-01-30T08:28:16;103342.94;;;21.05
63689;BMP280;54895;40.928;14.480;2024-01-30T08:30:43;103340.03;;;21.03
63689;BMP280;54895;40.928;14.480;2024-01-30T08:33:09;103350.34;;;21.38
63689;BMP280;54895;40.928;14.480;2024-01-30T08:38:54;103339.63;;;21.94
63689;BMP280;54895;40.928;14.480;2024-01-30T08:41:20;103333.88;;;21.97
63689;BMP280;54895;40.928;14.480;2024-01-30T08:43:46;103336.59;;;21.97
63689;BMP280;54895;40.928;14.480;2024-01-30T08:46:12;103342.31;;;21.66
63689;BMP280;54895;40.928;14.480;2024-01-30T08:48:39;103340.16;;;22.13
63689;BMP280;54895;40.928;14.480;2024-01-30T08:51:05;103337.44;;;21.85
63689;BMP280;54895;40.928;14.480;2024-01-30T08:53:34;103344.97;;;22.62
63689;BMP280;54895;40.928;14.480;2024-01-30T08:56:03;103341.78;;;22.71
63689;BMP280;54895;40.928;14.480;2024-01-30T08:58:29;103343.44;;;22.82
63689;BMP280;54895;40.928;14.480;2024-01-30T09:00:56;103343.97;;;22.45
63689;BMP280;54895;40.928;14.480;2024-01-30T09:03:22;103343.25;;;22.17
63689;BMP280;54895;40.928;14.480;2024-01-30T09:05:49;103342.41;;;22.22
63689;BMP280;54895;40.928;14.480;2024-01-30T09:08:15;103342.34;;;22.77
63689;BMP280;54895;40.928;14.480;2024-01-30T09:10:42;103341.47;;;22.82
63689;BMP280;54895;40.928;14.480;2024-01-30T09:13:08;103344.28;;;22.34
63689;BMP280;54895;40.928;14.480;2024-01-30T09:15:35;103351.25;;;22.50
63689;BMP280;54895;40.928;14.480;2024-01-30T09:18:01;103352.09;;;22.37
63689;BMP280;54895;40.928;14.480;2024-01-30T09:20:28;103355.59;;;21.97
63689;BMP280;54895;40.928;14.480;2024-01-30T09:22:55;103349.47;;;22.52
63689;BMP280;54895;40.928;14.480;2024-01-30T09:25:22;103349.25;;;22.50
63689;BMP280;54895;40.928;14.480;2024-01-30T09:27:48;103351.06;;;22.20
63689;BMP280;54895;40.928;14.480;2024-01-30T09:30:15;103350.69;;;22.16
63689;BMP280;54895;40.928;14.480;2024-01-30T09:32:43;103352.75;;;22.58
63689;BMP280;54895;40.928;14.480;2024-01-30T09:38:50;103344.28;;;23.35
63689;BMP280;54895;40.928;14.480;2024-01-30T09:41:18;103348.50;;;23.58
63689;BMP280;54895;40.928;14.480;2024-01-30T09:43:47;103342.88;;;23.86
63689;BMP280;54895;40.928;14.480;2024-01-30T09:46:17;103343.41;;;23.84
63689;BMP280;54895;40.928;14.480;2024-01-30T09:48:46;103331.97;;;23.78
63689;BMP280;54895;40.928;14.480;2024-01-30T09:51:14;103332.38;;;23.82
63689;BMP280;54895;40.928;14.480;2024-01-30T09:53:42;103329.78;;;23.84
63689;BMP280;54895;40.928;14.480;2024-01-30T09:56:12;103350.75;;;24.21
63689;BMP280;54895;40.928;14.480;2024-01-30T09:58:38;103335.88;;;24.30
63689;BMP280;54895;40.928;14.480;2024-01-30T10:01:06;103325.53;;;24.28
63689;BMP280;54895;40.928;14.480;2024-01-30T10:03:33;103330.69;;;24.56
63689;BMP280;54895;40.928;14.480;2024-01-30T10:06:01;103326.81;;;24.35
63689;BMP280;54895;40.928;14.480;2024-01-30T10:08:27;103327.81;;;23.70
63689;BMP280;54895;40.928;14.480;2024-01-30T10:10:56;103306.41;;;23.52
63689;BMP280;54895;40.928;14.480;2024-01-30T10:13:23;103321.59;;;24.07
63689;BMP280;54895;40.928;14.480;2024-01-30T10:15:49;103329.91;;;24.24
63689;BMP280;54895;40.928;14.480;2024-01-30T10:18:16;103317.19;;;24.73
63689;BMP280;54895;40.928;14.480;2024-01-30T10:20:42;103313.72;;;25.05
63689;BMP280;54895;40.928;14.480;2024-01-30T10:23:09;103300.91;;;24.90
63689;BMP280;54895;40.928;14.480;2024-01-30T10:25:35;103314.94;;;25.35
63689;BMP280;54895;40.928;14.480;2024-01-30T10:28:02;103315.47;;;25.09
63689;BMP280;54895;40.928;14.480;2024-01-30T10:30:31;103305.03;;;24.35
63689;BMP280;54895;40.928;14.480;2024-01-30T10:32:57;103303.16;;;25.08
63689;BMP280;54895;40.928;14.480;2024-01-30T10:35:23;103294.41;;;25.10
63689;BMP280;54895;40.928;14.480;2024-01-30T10:37:50;103301.06;;;25.16
63689;BMP280;54895;40.928;14.480;2024-01-30T10:40:16;103295.97;;;24.72
63689;BMP280;54895;40.928;14.480;2024-01-30T10:42:44;103297.16;;;24.78
63689;BMP280;54895;40.928;14.480;2024-01-30T10:45:12;103288.38;;;24.95
63689;BMP280;54895;40.928;14.480;2024-01-30T10:47:55;103282.31;;;25.20
63689;BMP280;54895;40.928;14.480;2024-01-30T10:50:24;103278.56;;;24.60
63689;BMP280;54895;40.928;14.480;2024-01-30T10:52:50;103273.25;;;24.94
63689;BMP280;54895;40.928;14.480;2024-01-30T10:55:18;103266.63;;;24.80
63689;BMP280;54895;40.928;14.480;2024-01-30T10:57:44;103262.22;;;24.92
63689;BMP280;54895;40.928;14.480;2024-01-30T11:00:13;103254.06;;;24.60
63689;BMP280;54895;40.928;14.480;2024-01-30T11:02:43;103265.19;;;24.47
63689;BMP280;54895;40.928;14.480;2024-01-30T11:05:10;103266.00;;;24.72
63689;BMP280;54895;40.928;14.480;2024-01-30T11:07:39;103256.00;;;24.99
63689;BMP280;54895;40.928;14.480;2024-01-30T11:10:08;103250.56;;;24.99
63689;BMP280;54895;40.928;14.480;2024-01-30T11:12:40;103244.28;;;24.57
63689;BMP280;54895;40.928;14.480;2024-01-30T11:15:17;103247.19;;;24.59
63689;BMP280;54895;40.928;14.480;2024-01-30T11:20:16;103227.53;;;24.68
63689;BMP280;54895;40.928;14.480;2024-01-30T11:22:45;103233.03;;;24.53
63689;BMP280;54895;40.928;14.480;2024-01-30T11:25:16;103224.75;;;24.43
63689;BMP280;54895;40.928;14.480;2024-01-30T11:27:43;103227.94;;;23.63
63689;BMP280;54895;40.928;14.480;2024-01-30T11:30:11;103227.31;;;24.02
63689;BMP280;54895;40.928;14.480;2024-01-30T11:32:37;103218.66;;;24.60
63689;BMP280;54895;40.928;14.480;2024-01-30T11:35:04;103226.78;;;23.96
63689;BMP280;54895;40.928;14.480;2024-01-30T11:40:53;103216.06;;;24.94
63689;BMP280;54895;40.928;14.480;2024-01-30T11:43:20;103218.44;;;24.90
63689;BMP280;54895;40.928;14.480;2024-01-30T11:45:46;103217.13;;;24.98
63689;BMP280;54895;40.928;14.480;2024-01-30T11:48:12;103217.69;;;25.13
63689;BMP280;54895;40.928;14.480;2024-01-30T11:50:40;103218.09;;;24.69
63689;BMP280;54895;40.928;14.480;2024-01-30T11:53:11;103210.13;;;24.88
63689;BMP280;54895;40.928;14.480;2024-01-30T11:55:37;103211.25;;;24.85
63689;BMP280;54895;40.928;14.480;2024-01-30T11:58:04;103209.47;;;24.97
63689;BMP280;54895;40.928;14.480;2024-01-30T12:00:30;103211.00;;;24.66
63689;BMP280;54895;40.928;14.480;2024-01-30T12:02:59;103203.06;;;24.85
63689;BMP280;54895;40.928;14.480;2024-01-30T12:05:27;103193.31;;;24.18
63689;BMP280;54895;40.928;14.480;2024-01-30T12:07:53;103195.38;;;24.91
63689;BMP280;54895;40.928;14.480;2024-01-30T12:10:21;103191.28;;;25.57
63689;BMP280;54895;40.928;14.480;2024-01-30T12:12:49;103193.34;;;25.66
63689;BMP280;54895;40.928;14.480;2024-01-30T12:15:16;103189.28;;;25.00
63689;BMP280;54895;40.928;14.480;2024-01-30T12:17:43;103186.47;;;24.66
63689;BMP280;54895;40.928;14.480;2024-01-30T12:20:14;103198.19;;;25.41
63689;BMP280;54895;40.928;14.480;2024-01-30T12:22:43;103187.06;;;25.90
63689;BMP280;54895;40.928;14.480;2024-01-30T12:25:16;103188.38;;;25.72
63689;BMP280;54895;40.928;14.480;2024-01-30T12:27:44;103178.84;;;25.64
63689;BMP280;54895;40.928;14.480;2024-01-30T12:30:13;103179.34;;;24.46
63689;BMP280;54895;40.928;14.480;2024-01-30T12:32:50;103174.75;;;24.80
63689;BMP280;54895;40.928;14.480;2024-01-30T12:35:18;103178.91;;;25.56
63689;BMP280;54895;40.928;14.480;2024-01-30T12:37:46;103177.84;;;25.01
63689;BMP280;54895;40.928;14.480;2024-01-30T12:40:13;103171.72;;;24.52
63689;BMP280;54895;40.928;14.480;2024-01-30T12:42:41;103177.47;;;24.56
63689;BMP280;54895;40.928;14.480;2024-01-30T12:45:13;103168.28;;;24.76
63689;BMP280;54895;40.928;14.480;2024-01-30T12:47:41;103169.63;;;25.08
63689;BMP280;54895;40.928;14.480;2024-01-30T12:50:07;103168.81;;;25.66
63689;BMP280;54895;40.928;14.480;2024-01-30T12:52:35;103164.00;;;25.40
63689;BMP280;54895;40.928;14.480;2024-01-30T12:55:01;103167.22;;;25.12
63689;BMP280;54895;40.928;14.480;2024-01-30T12:57:30;103165.59;;;25.26
63689;BMP280;54895;40.928;14.480;2024-01-30T12:59:56;103162.25;;;26.22
63689;BMP280;54895;40.928;14.480;2024-01-30T13:02:22;103156.78;;;25.52
63689;BMP280;54895;40.928;14.480;2024-01-30T13:04:49;103162.56;;;25.56
63689;BMP280;54895;40.928;14.480;2024-01-30T13:07:16;103159.31;;;25.00
63689;BMP280;54895;40.928;14.480;2024-01-30T13:09:42;103152.72;;;24.69
63689;BMP280;54895;40.928;14.480;2024-01-30T13:12:08;103153.66;;;25.05
63689;BMP280;54895;40.928;14.480;2024-01-30T13:14:34;103153.59;;;25.29
63689;BMP280;54895;40.928;14.480;2024-01-30T13:17:01;103155.81;;;25.74
63689;BMP280;54895;40.928;14.480;2024-01-30T13:19:28;103159.22;;;26.18
63689;BMP280;54895;40.928;14.480;2024-01-30T13:21:54;103164.63;;;25.65
63689;BMP280;54895;40.928;14.480;2024-01-30T13:24:20;103156.75;;;25.69
63689;BMP280;54895;40.928;14.480;2024-01-30T13:26:47;103157.56;;;25.62
63689;BMP280;54895;40.928;14.480;2024-01-30T13:29:14;103159.66;;;25.98
63689;BMP280;54895;40.928;14.480;2024-01-30T13:31:41;103160.28;;;25.79
63689;BMP280;54895;40.928;14.480;2024-01-30T13:34:07;103156.69;;;25.77
63689;BMP280;54895;40.928;14.480;2024-01-30T13:36:34;103157.84;;;25.23
63689;BMP280;54895;40.928;14.480;2024-01-30T13:41:51;103153.25;;;24.43
63689;BMP280;54895;40.928;14.480;2024-01-30T13:44:18;103166.00;;;24.89
63689;BMP280;54895;40.928;14.480;2024-01-30T13:46:44;103167.69;;;25.52
63689;BMP280;54895;40.928;14.480;2024-01-30T13:49:12;103151.94;;;25.77
63689;BMP280;54895;40.928;14.480;2024-01-30T13:51:38;103161.06;;;25.89
63689;BMP280;54895;40.928;14.480;2024-01-30T13:54:05;103161.56;;;25.78
63689;BMP280;54895;40.928;14.480;2024-01-30T13:56:31;103164.06;;;26.10
63689;BMP280;54895;40.928;14.480;2024-01-30T13:58:57;103157.38;;;25.77
63689;BMP280;54895;40.928;14.480;2024-01-30T14:01:24;103153.22;;;25.76
63689;BMP280;54895;40.928;14.480;2024-01-30T14:03:50;103158.84;;;25.78
63689;BMP280;54895;40.928;14.480;2024-01-30T14:06:17;103151.16;;;25.67
63689;BMP280;54895;40.928;14.480;2024-01-30T14:08:44;103156.66;;;25.94
63689;BMP280;54895;40.928;14.480;2024-01-30T14:11:11;103155.78;;;26.27
63689;BMP280;54895;40.928;14.480;2024-01-30T14:13:37;103154.06;;;26.77
63689;BMP280;54895;40.928;14.480;2024-01-30T14:16:03;103152.38;;;27.29
63689;BMP280;54895;40.928;14.480;2024-01-30T14:18:30;103159.72;;;27.07
63689;BMP280;54895;40.928;14.480;2024-01-30T14:20:56;103151.50;;;27.17
63689;BMP280;54895;40.928;14.480;2024-01-30T14:23:23;103150.50;;;27.03